< < Back
Terminal Aerodrome Forecast


Current Version              Previous Versions:   1  2  3  4  5  6  7  8  9  

Terminal Aerodrome Forecast

928
FTUS42 KFFC 161700 RRA
TAFAHN
TAF
KAHN 161742Z 1618/1718 32005KT P6SM SCT035 BKN120
     FM162000 31008KT P6SM VCSH SCT040 BKN100
     FM170200 VRB03KT P6SM SCT120 BKN250
     FM170900 00000KT 3SM BR FEW250
     FM171500 33005KT P6SM FEW040 FEW250=



Latest METAR

584
SAUS70 KWBC 162300 RRA
MTRAHN
METAR KAHN 162251Z 31006KT 10SM FEW044 29/19 A2996 RMK AO2 SLP137
T02890194


USA.gov is the U.S. government's official web portal to all federal, state and local government web resources and services.